Mount Dora, New Mexico
Current Conditions -  °F | °C
As of 10:55 PM on Wednesday 26 Nov 2014 (Local Time) from KCAO Reporting Station
Clear Clear  
Wind Chill: 22°   Ceiling: Unl
Heat Index: 31°   Visibility: 10mi
Dew Point: 23°   Wind: 10mph
Humidity: 72%   Direction: 240°WSW
Pressure: 30.37"   Gusts: NA
Location:  36.51°N, 103.49°W
Report Text: KCAO 270555Z AUTO 24009KT 10SM CLR M01/M05 A3037 RMK AO2 SLP292 T10061050 10028 21017 53010
Loading
Personal Weather Stations






























Interactive Weather Map New forecast layout! Learn more

10-Day Weather Forecast

Advertisements
Track Severe Weather on mobile